LDRI Airport Information

Runway Information
Runway 14 Length 8164 ft width 148 ft
Elevation 264 ft Threshold 0 ft Heading 144
Runway 32 Length 8164 ft Width 148 ft
Elevation 246 ft Threshold 0 ft Heading 324
Airport Frequencies
Type APP Name APP Frequency 119 MHZ
Type TWR Name TWR Frequency 119 MHZ
Airport Navaids
Type NDB Name Breza Frequency 400 KHZ
Type NDB Name Kozala Frequency 438 KHZ
Type VOR-DME Name Rijeka Frequency 117800 KHZ
Airport Weather Information & NOTAM
ADDS - METARS form results

(1009 UTC 21 April 2019)
Data provider http://aviationweather.gov/metar/data/
 
METAR text: LDRI 211000Z 31004KT 240V020 CAVOK 20/M02 Q1022
Conditions at: LDRI (RIJEKA/OMISALJ , HR) observed 1000 UTC 21 April 2019
Temperature: 20.0°C (68°F)
Dewpoint: -2.0°C (28°F) [RH = 23%]
Pressure (altimeter): 30.18 inches Hg (1022.0 mb)
Winds: from the NW (310 degrees) at 5 MPH (4 knots; 2.1 m/s)
Visibility: 6 or more miles (10+ km)
Ceiling: ceiling and visibility are OK
Clouds: unknown
Weather: no significant weather observed at this time

METAR text: LDRI 210930Z VRB02KT CAVOK 19/M02 Q1022
Conditions at: LDRI (RIJEKA/OMISALJ , HR) observed 0930 UTC 21 April 2019
Temperature: 19.0°C (66°F)
Dewpoint: -2.0°C (28°F) [RH = 24%]
Pressure (altimeter): 30.18 inches Hg (1022.0 mb)
Winds: variable direction winds at 2 MPH (2 knots; 1.0 m/s)
Visibility: 6 or more miles (10+ km)
Ceiling: ceiling and visibility are OK
Clouds: unknown
Weather: no significant weather observed at this time

Forecast for: LDRI (RIJEKA/OMISALJ , HR)
Text: TAF LDRI 210525Z 2106/2206 VRB02KT CAVOK TX23/2112Z TN11/2203Z
Forecast period: 0600 UTC 21 April 2019 to 0600 UTC 22 April 2019
Forecast type: FROM: standard forecast or significant change
Winds: variable direction winds at 2 MPH (2 knots; 1.0 m/s)
Visibility: 6 or more miles 10+ km)
Ceiling: unknown
Clouds: missing
Weather: no significant weather forecast for this period
Text: TEMPO 2110/2116 30006KT
Forecast period: 1000 to 1600 UTC 21 April 2019
Forecast type: TEMPORARY: The following changes expected for less than half the time period
Winds: from the WNW (300 degrees) at 7 MPH (6 knots; 3.1 m/s)
Visibility: missing
Ceiling: unknown
Clouds: missing
Weather: no significant weather forecast for this period